Time;durP1;ratioP1;P1;durP2;ratioP2;P2;SDS_P1;SDS_P2;PMS_P1;PMS_P2;Temp;Humidity;BMP_temperature;BMP_pressure;BME280_temperature;BME280_humidity;BME280_pressure;Samples;Min_cycle;Max_cycle;Signal;HPM_P1;HPM_P2
2020/12/09 00:02:00;;;;;;;56.23;41.10;;;;;;;7.39;59.43;100898.22;6084195;29;20241;-58
2020/12/09 00:05:24;;;;;;;50.70;38.77;;;;;;;7.62;59.32;100895.75;6075100;29;20237;-60
2020/12/09 00:08:44;;;;;;;56.03;43.20;;;;;;;7.58;59.29;100894.84;6082625;29;20611;-59
2020/12/09 00:12:05;;;;;;;53.57;39.33;;;;;;;7.88;58.58;100888.03;6074356;29;20237;-59
2020/12/09 00:15:26;;;;;;;56.67;40.37;;;;;;;7.74;58.53;100887.16;6071547;29;21815;-59
2020/12/09 00:18:46;;;;;;;56.27;39.47;;;;;;;7.53;58.96;100896.56;6075981;29;20321;-61
2020/12/09 00:22:07;;;;;;;55.37;41.73;;;;;;;7.53;59.06;100901.72;6070502;29;20576;-59
2020/12/09 00:25:28;;;;;;;53.57;42.13;;;;;;;7.37;59.43;100900.78;6072605;29;20237;-60
2020/12/09 00:28:50;;;;;;;53.37;40.47;;;;;;;7.28;59.57;100901.59;6079553;29;20567;-61
2020/12/09 00:32:10;;;;;;;52.53;41.70;;;;;;;7.40;59.55;100897.34;6075077;29;20245;-60
2020/12/09 00:35:31;;;;;;;62.90;40.97;;;;;;;7.53;59.23;100887.91;6067905;29;20683;-60
2020/12/09 00:38:53;;;;;;;59.33;43.83;;;;;;;7.53;59.23;100890.50;6073682;29;20241;-60
2020/12/09 00:42:14;;;;;;;54.60;40.63;;;;;;;7.66;58.71;100875.00;6066396;29;20287;-60
2020/12/09 00:45:35;;;;;;;55.77;41.90;;;;;;;7.74;58.57;100884.56;6071856;29;20633;-60
2020/12/09 00:48:56;;;;;;;56.03;40.10;;;;;;;7.56;58.97;100888.81;6086449;29;20267;-60
2020/12/09 00:52:20;;;;;;;54.00;39.10;;;;;;;7.46;58.86;100894.78;6086080;29;20257;-60
2020/12/09 00:55:41;;;;;;;53.73;38.13;;;;;;;7.53;58.65;100890.50;6073334;29;20264;-60
2020/12/09 00:59:03;;;;;;;52.27;38.83;;;;;;;7.48;58.85;100883.59;6079843;29;20236;-60
2020/12/09 01:02:25;;;;;;;53.73;38.57;;;;;;;7.41;59.09;100894.75;6082974;29;20244;-60
2020/12/09 01:05:46;;;;;;;55.60;38.90;;;;;;;7.65;58.77;100895.72;6075195;29;20241;-60
2020/12/09 01:09:07;;;;;;;51.20;37.90;;;;;;;7.61;58.60;100894.84;6071962;29;20323;-60
2020/12/09 01:12:28;;;;;;;55.13;39.00;;;;;;;7.45;58.74;100908.59;6056897;29;20228;-60
2020/12/09 01:15:48;;;;;;;62.67;40.57;;;;;;;7.48;59.22;100903.41;6079004;29;20579;-60
2020/12/09 01:19:09;;;;;;;56.60;40.70;;;;;;;7.45;59.18;100898.25;6077752;29;20245;-61
2020/12/09 01:22:30;;;;;;;55.50;39.13;;;;;;;7.48;58.93;100898.25;6068675;29;20244;-59
2020/12/09 01:25:50;;;;;;;52.93;36.87;;;;;;;7.59;58.75;100906.06;6076924;29;20259;-60
2020/12/09 01:29:10;;;;;;;58.83;40.30;;;;;;;7.43;59.02;100899.97;6071285;29;20233;-60
2020/12/09 01:32:31;;;;;;;53.90;39.53;;;;;;;7.51;58.90;100900.84;6074052;29;20228;-61
2020/12/09 01:35:52;;;;;;;46.60;36.40;;;;;;;7.48;58.91;100909.50;6075273;29;20631;-61
2020/12/09 01:39:13;;;;;;;53.00;35.97;;;;;;;7.48;58.93;100898.25;6079232;29;20233;-60
2020/12/09 01:42:33;;;;;;;52.23;37.60;;;;;;;7.55;58.83;100900.00;6062867;29;20237;-59
2020/12/09 01:45:54;;;;;;;47.93;37.60;;;;;;;7.53;59.02;100904.31;6077071;29;20236;-58
2020/12/09 01:49:14;;;;;;;53.87;39.63;;;;;;;7.61;58.61;100909.53;6078563;29;20331;-60
2020/12/09 01:52:35;;;;;;;55.00;39.77;;;;;;;7.45;59.10;100914.66;6073281;29;20228;-60
2020/12/09 01:55:56;;;;;;;59.90;39.33;;;;;;;7.23;59.69;100925.72;6073360;29;20245;-61
2020/12/09 01:59:16;;;;;;;54.97;41.07;;;;;;;7.20;59.82;100924.00;6063063;29;20661;-61
2020/12/09 02:02:37;;;;;;;54.63;39.70;;;;;;;7.08;60.21;100913.56;6067542;29;20988;-60
2020/12/09 02:05:57;;;;;;;56.90;38.90;;;;;;;7.13;59.86;100922.22;6083577;29;20232;-61
2020/12/09 02:09:18;;;;;;;62.73;42.20;;;;;;;7.07;60.07;100919.59;6072542;29;20253;-61
2020/12/09 02:12:40;;;;;;;54.87;39.93;;;;;;;7.24;59.77;100930.94;6072745;29;20237;-60
2020/12/09 02:16:01;;;;;;;55.53;38.60;;;;;;;7.20;59.92;100933.50;6072103;29;20233;-61
2020/12/09 02:19:23;;;;;;;53.43;40.07;;;;;;;7.11;60.05;100926.53;6080703;29;20229;-60
2020/12/09 02:22:52;;;;;;;54.87;36.87;;;;;;;7.36;59.76;100924.09;6077958;29;20241;-60
2020/12/09 02:26:13;;;;;;;57.00;37.33;;;;;;;7.39;59.43;100921.53;6071775;29;20547;-60
2020/12/09 02:29:33;;;;;;;51.10;37.13;;;;;;;7.15;60.06;100924.81;6077443;29;20249;-60
2020/12/09 02:32:54;;;;;;;51.33;37.70;;;;;;;7.28;59.60;100924.91;6078888;29;20517;-61
2020/12/09 02:36:15;;;;;;;52.00;35.40;;;;;;;7.29;59.71;100918.88;6076600;29;20236;-60
2020/12/09 02:39:37;;;;;;;52.83;33.80;;;;;;;7.09;60.03;100910.09;6084237;29;20614;-59
2020/12/09 02:42:58;;;;;;;53.27;36.00;;;;;;;7.24;59.83;100905.03;6071570;29;20252;-60
2020/12/09 02:46:18;;;;;;;48.33;35.87;;;;;;;7.21;59.65;100899.84;6065676;29;20245;-60
2020/12/09 02:49:38;;;;;;;48.87;36.43;;;;;;;7.25;59.47;100895.53;6090384;29;20316;-61
2020/12/09 02:52:59;;;;;;;54.30;35.90;;;;;;;7.44;59.02;100893.91;6072371;29;20237;-60
2020/12/09 02:56:20;;;;;;;45.23;33.27;;;;;;;7.35;59.13;100891.25;6067157;29;20357;-60
2020/12/09 02:59:40;;;;;;;56.23;38.73;;;;;;;7.48;58.82;100895.66;6090096;29;20260;-60
2020/12/09 03:03:00;;;;;;;50.10;35.33;;;;;;;7.25;59.26;100900.69;6079473;29;20931;-60
2020/12/09 03:06:21;;;;;;;50.83;35.83;;;;;;;6.94;60.35;100905.72;6063267;29;20302;-60
2020/12/09 03:09:41;;;;;;;48.13;35.87;;;;;;;7.29;59.57;100908.53;6084636;29;20225;-60
2020/12/09 03:13:02;;;;;;;45.37;32.63;;;;;;;7.37;59.26;100915.47;6068788;29;20258;-61
2020/12/09 03:16:23;;;;;;;52.13;34.53;;;;;;;7.41;59.01;100906.88;6068420;29;20260;-60
2020/12/09 03:19:44;;;;;;;53.70;34.60;;;;;;;7.52;58.79;100894.81;6086487;29;20238;-59
2020/12/09 03:23:04;;;;;;;50.63;34.93;;;;;;;7.54;58.74;100893.13;6079346;29;20548;-60
2020/12/09 03:26:26;;;;;;;55.27;36.90;;;;;;;7.47;58.95;100909.47;6070550;29;20587;-60
2020/12/09 03:29:48;;;;;;;52.50;35.00;;;;;;;7.45;58.80;100909.47;6090227;29;20245;-61
2020/12/09 03:33:08;;;;;;;52.77;36.10;;;;;;;7.22;59.42;100914.50;6072236;29;20228;-60
2020/12/09 03:36:29;;;;;;;54.40;36.33;;;;;;;7.27;59.58;100917.16;6066824;29;21679;-60
2020/12/09 03:39:49;;;;;;;61.23;37.27;;;;;;;7.35;59.28;100911.97;6080241;29;20257;-60
2020/12/09 03:43:09;;;;;;;57.07;36.97;;;;;;;7.45;59.01;100898.25;6062145;29;20244;-60
2020/12/09 03:46:31;;;;;;;71.40;50.90;;;;;;;7.60;58.91;100895.72;6070661;29;20230;-60
2020/12/09 03:49:51;;;;;;;59.87;40.03;;;;;;;7.40;59.16;100903.38;6088475;29;20229;-60
2020/12/09 03:53:12;;;;;;;62.97;40.03;;;;;;;7.59;58.89;100911.25;6070590;29;20232;-59
2020/12/09 03:56:33;;;;;;;62.83;40.53;;;;;;;7.73;58.29;100921.69;6063758;29;20616;-60
2020/12/09 03:59:53;;;;;;;54.60;39.07;;;;;;;7.69;58.46;100937.22;6061162;29;20230;-60
2020/12/09 04:03:14;;;;;;;57.63;37.47;;;;;;;7.43;59.01;100931.06;6075325;29;20273;-59
2020/12/09 04:06:35;;;;;;;52.60;35.27;;;;;;;7.64;58.50;100936.34;6071851;29;20273;-61
2020/12/09 04:09:55;;;;;;;59.43;38.33;;;;;;;7.46;58.66;100925.88;6087777;29;20229;-60
2020/12/09 04:13:16;;;;;;;56.07;36.90;;;;;;;7.37;59.16;100941.38;6085496;29;20237;-61
2020/12/09 04:16:36;;;;;;;56.37;36.10;;;;;;;7.52;58.96;100944.03;6068022;29;20627;-60
2020/12/09 04:19:58;;;;;;;58.17;39.03;;;;;;;7.64;58.46;100945.84;6064741;29;20234;-59
2020/12/09 04:23:18;;;;;;;53.50;37.07;;;;;;;7.61;58.48;100941.50;6079138;29;20244;-60
2020/12/09 04:26:39;;;;;;;53.03;35.13;;;;;;;7.74;58.25;100934.66;6065521;29;20241;-60
2020/12/09 04:29:59;;;;;;;55.00;36.80;;;;;;;7.76;58.02;100939.88;6085613;29;20261;-61
2020/12/09 04:33:27;;;;;;;53.37;38.03;;;;;;;7.74;57.98;100937.25;6088849;29;20256;-61
2020/12/09 04:36:49;;;;;;;51.37;36.83;;;;;;;7.79;57.93;100930.38;6068706;29;20599;-60
2020/12/09 04:40:09;;;;;;;57.87;38.87;;;;;;;7.80;58.13;100932.09;6082169;29;20237;-61
2020/12/09 04:43:31;;;;;;;52.40;38.87;;;;;;;7.62;58.44;100940.66;6079992;29;20260;-60
2020/12/09 04:46:53;;;;;;;58.97;38.77;;;;;;;7.51;58.54;100933.69;6070346;29;20236;-60
2020/12/09 04:50:14;;;;;;;50.33;36.53;;;;;;;7.55;58.43;100925.94;6088836;29;20229;-60
2020/12/09 04:53:36;;;;;;;60.70;39.37;;;;;;;7.62;58.35;100922.50;6081175;29;20233;-60
2020/12/09 04:57:10;;;;;;;57.40;38.07;;;;;;;7.64;58.57;100922.53;6070192;29;20229;-58
2020/12/09 05:00:31;;;;;;;58.37;38.93;;;;;;;7.68;58.17;100925.13;6076765;29;20233;-60
2020/12/09 05:03:52;;;;;;;60.17;41.10;;;;;;;7.74;58.05;100926.88;6076707;29;20236;-59
2020/12/09 05:07:13;;;;;;;54.27;37.23;;;;;;;7.71;58.11;100921.69;6075114;29;20240;-60
2020/12/09 05:10:39;;;;;;;59.23;37.87;;;;;;;7.87;57.66;100917.41;6079439;29;20229;-59
2020/12/09 05:13:59;;;;;;;55.27;36.00;;;;;;;7.55;58.35;100931.13;6079546;29;20249;-59
2020/12/09 05:17:21;;;;;;;53.93;38.43;;;;;;;7.63;58.42;100934.59;6079167;29;20232;-59
2020/12/09 05:20:42;;;;;;;50.60;35.07;;;;;;;7.72;58.05;100943.31;6077694;29;20233;-61
2020/12/09 05:24:02;;;;;;;51.00;36.20;;;;;;;7.67;58.11;100935.47;6072741;29;20327;-59
2020/12/09 05:27:23;;;;;;;56.37;37.00;;;;;;;7.80;57.84;100936.41;6074621;29;20322;-60
2020/12/09 05:30:45;;;;;;;51.80;35.13;;;;;;;7.67;57.95;100951.03;6077187;29;20229;-60
2020/12/09 05:34:25;;;;;;;54.73;36.50;;;;;;;7.73;57.96;100955.38;6080846;29;20692;-60
2020/12/09 05:37:45;;;;;;;60.47;39.53;;;;;;;7.58;58.21;100962.25;6077444;29;20223;-60
2020/12/09 05:41:09;;;;;;;53.17;35.83;;;;;;;7.67;58.08;100969.19;6072365;29;20272;-60
2020/12/09 05:44:31;;;;;;;55.77;39.20;;;;;;;7.55;58.52;100976.91;6077011;29;20236;-61
2020/12/09 05:48:11;;;;;;;55.33;39.23;;;;;;;7.55;58.69;100976.91;6069796;29;20670;-61
2020/12/09 05:51:31;;;;;;;57.13;37.47;;;;;;;7.61;58.35;100971.75;6069225;29;20233;-60
2020/12/09 05:54:53;;;;;;;53.13;36.10;;;;;;;7.53;58.50;100979.47;6081375;29;20257;-62
2020/12/09 05:58:25;;;;;;;57.03;37.27;;;;;;;7.49;58.68;100969.97;6078449;29;20335;-60
2020/12/09 06:01:46;;;;;;;58.63;43.67;;;;;;;7.59;58.33;100970.88;6066715;29;21020;-61
2020/12/09 06:05:08;;;;;;;55.83;39.90;;;;;;;7.45;58.90;100958.69;6083466;29;20237;-61
2020/12/09 06:08:38;;;;;;;52.63;37.30;;;;;;;7.53;58.72;100960.47;6073918;29;20845;-59
2020/12/09 06:12:02;;;;;;;57.53;37.83;;;;;;;7.67;58.24;100951.91;6071550;29;20251;-60
2020/12/09 06:15:25;;;;;;;58.60;38.23;;;;;;;7.78;57.91;100943.31;6084308;29;20595;-60
2020/12/09 06:18:48;;;;;;;56.50;39.13;;;;;;;7.68;58.23;100945.88;6083076;29;20236;-61
2020/12/09 06:22:08;;;;;;;57.27;39.90;;;;;;;7.72;58.32;100948.50;6070146;29;20225;-60
2020/12/09 06:25:29;;;;;;;61.20;41.20;;;;;;;7.78;58.01;100949.38;6089001;29;20602;-59
2020/12/09 06:28:50;;;;;;;56.07;38.23;;;;;;;7.89;58.00;100952.03;6083059;29;20569;-59
2020/12/09 06:32:11;;;;;;;58.97;41.37;;;;;;;7.91;57.80;100954.59;6069474;29;20250;-60
2020/12/09 06:35:33;;;;;;;58.07;38.63;;;;;;;7.80;58.08;100951.97;6079493;29;20237;-59
2020/12/09 06:39:16;;;;;;;56.33;39.00;;;;;;;7.70;58.48;100948.47;6080903;29;20241;-59
2020/12/09 06:42:37;;;;;;;58.47;41.67;;;;;;;7.81;58.36;100964.97;6079033;29;20592;-57
2020/12/09 06:45:58;;;;;;;56.50;38.10;;;;;;;7.82;58.09;100965.81;6082879;29;20316;-60
2020/12/09 06:49:36;;;;;;;56.93;39.60;;;;;;;7.81;57.93;100964.97;6064187;29;20521;-58
2020/12/09 06:53:11;;;;;;;58.07;36.50;;;;;;;7.89;57.73;100967.59;6083571;29;20240;-59
2020/12/09 06:56:32;;;;;;;59.47;39.47;;;;;;;7.82;57.85;100971.00;6067347;29;20240;-60
2020/12/09 07:00:29;;;;;;;61.50;42.80;;;;;;;7.93;57.80;100978.81;6082839;29;20245;-60
2020/12/09 07:03:51;;;;;;;57.58;46.58;;;;;;;7.69;58.42;100975.25;6074770;29;20765;-59
2020/12/09 07:07:25;;;;;;;56.70;39.70;;;;;;;7.71;58.29;100983.03;6072727;29;20228;-59
2020/12/09 07:10:46;;;;;;;57.00;39.27;;;;;;;7.71;58.49;100977.84;6077852;29;20233;-54
2020/12/09 07:14:07;;;;;;;54.50;39.20;;;;;;;7.80;58.49;100963.22;6077590;29;20276;-58
2020/12/09 07:17:28;;;;;;;56.60;39.33;;;;;;;7.88;57.91;100966.69;6075320;29;20231;-52
2020/12/09 07:20:50;;;;;;;58.80;40.07;;;;;;;7.97;58.12;100965.88;6077961;29;20237;-59
2020/12/09 07:24:11;;;;;;;51.77;37.00;;;;;;;7.92;58.09;100975.34;6082064;29;20331;-57
2020/12/09 07:27:35;;;;;;;55.37;38.93;;;;;;;7.87;58.01;100979.66;6072396;29;20229;-59
2020/12/09 07:31:03;;;;;;;62.77;36.00;;;;;;;7.88;58.08;100976.22;6079749;29;20237;-59
2020/12/09 07:34:23;;;;;;;50.00;36.27;;;;;;;7.80;58.17;100977.91;6073663;29;20233;-60
2020/12/09 07:37:46;;;;;;;58.00;38.27;;;;;;;7.87;58.31;100969.28;6076931;29;20236;-61
2020/12/09 07:41:07;;;;;;;54.30;37.30;;;;;;;7.88;58.07;100960.66;6079849;29;20271;-58
2020/12/09 07:44:32;;;;;;;53.27;36.43;;;;;;;8.01;58.01;100961.56;6076711;29;20237;-54
2020/12/09 07:47:58;;;;;;;56.10;38.60;;;;;;;8.07;57.89;100966.78;6078091;29;20319;-60
2020/12/09 07:51:19;;;;;;;57.93;37.23;;;;;;;8.01;57.72;100965.03;6064838;29;20244;-55
2020/12/09 07:54:39;;;;;;;53.43;37.43;;;;;;;8.08;57.61;100968.50;6080702;29;20272;-61
2020/12/09 07:58:04;;;;;;;54.97;38.07;;;;;;;8.07;57.72;100970.22;6078448;29;20232;-61
2020/12/09 08:01:28;;;;;;;54.30;37.33;;;;;;;7.87;57.94;100967.56;6065430;29;20233;-61
2020/12/09 08:05:06;;;;;;;57.40;38.13;;;;;;;7.95;58.25;100972.78;6092807;29;20237;-60
2020/12/09 08:08:27;;;;;;;50.57;35.87;;;;;;;7.92;58.06;100966.72;6078345;29;20237;-62
2020/12/09 08:11:50;;;;;;;55.20;37.83;;;;;;;8.01;58.00;100964.16;6067406;29;20228;-56
2020/12/09 08:15:10;;;;;;;56.53;38.87;;;;;;;7.73;58.82;100976.13;6080407;29;20516;-54
2020/12/09 08:18:32;;;;;;;56.33;39.50;;;;;;;7.68;59.05;100982.16;6058326;29;20232;-56
2020/12/09 08:22:04;;;;;;;57.90;38.93;;;;;;;7.74;58.67;100970.97;6073850;29;20252;-51
2020/12/09 08:25:27;;;;;;;53.40;37.57;;;;;;;7.74;58.90;100973.56;6082872;29;20248;-54
2020/12/09 08:28:47;;;;;;;59.73;38.43;;;;;;;7.78;58.76;100985.66;6079711;29;20225;-56
2020/12/09 08:32:10;;;;;;;55.17;38.40;;;;;;;7.74;58.77;100993.44;6071823;29;20728;-61
2020/12/09 08:35:43;;;;;;;55.17;40.47;;;;;;;7.87;58.67;100984.84;6079600;29;20616;-60
2020/12/09 08:39:03;;;;;;;58.73;37.50;;;;;;;7.88;58.34;100981.41;6073679;29;20233;-64
2020/12/09 08:42:24;;;;;;;56.93;35.60;;;;;;;8.02;58.14;100984.91;6073642;29;20660;-57
2020/12/09 08:45:45;;;;;;;54.50;35.77;;;;;;;7.57;59.02;100986.41;6081245;29;20241;-61
2020/12/09 08:49:05;;;;;;;48.17;35.37;;;;;;;7.81;58.55;100982.22;6078146;29;20233;-56
2020/12/09 08:52:27;;;;;;;52.90;35.50;;;;;;;7.78;58.72;100982.22;6071423;29;20232;-61
2020/12/09 08:55:48;;;;;;;49.67;34.13;;;;;;;7.80;58.64;100978.75;6078195;29;20706;-60
2020/12/09 08:59:11;;;;;;;53.03;36.23;;;;;;;7.77;58.85;100973.53;6077925;29;20241;-60
2020/12/09 09:02:31;;;;;;;48.57;34.30;;;;;;;7.69;58.57;100990.78;6071930;29;20320;-57
2020/12/09 09:05:53;;;;;;;48.20;33.13;;;;;;;7.79;58.61;100986.53;6080077;29;20237;-60
2020/12/09 09:09:15;;;;;;;48.47;36.57;;;;;;;7.74;58.76;100993.44;6079646;29;20734;-58
2020/12/09 09:12:35;;;;;;;49.77;35.63;;;;;;;7.71;58.60;100996.00;6058119;29;20241;-60
2020/12/09 09:15:57;;;;;;;49.80;35.93;;;;;;;7.74;58.73;100998.63;6083038;29;20241;-60
2020/12/09 09:19:17;;;;;;;53.10;36.47;;;;;;;7.82;58.63;100996.94;6073639;29;20241;-59
2020/12/09 09:22:37;;;;;;;49.83;36.43;;;;;;;7.84;58.31;100990.03;6072043;29;20228;-60
2020/12/09 09:25:59;;;;;;;46.57;33.80;;;;;;;7.91;58.35;100990.91;6076371;29;20791;-57
2020/12/09 09:29:19;;;;;;;50.97;35.07;;;;;;;7.87;58.58;100982.25;6062202;29;20245;-61
2020/12/09 09:32:40;;;;;;;47.87;33.37;;;;;;;7.82;58.47;100986.56;6076512;29;20670;-60
2020/12/09 09:36:01;;;;;;;48.20;33.77;;;;;;;7.89;58.55;100985.72;6071493;29;20237;-62
2020/12/09 09:39:21;;;;;;;45.67;33.37;;;;;;;7.87;58.56;100980.53;6067542;29;20245;-63
2020/12/09 09:42:42;;;;;;;53.30;36.47;;;;;;;7.71;58.62;100988.22;6080609;29;20229;-61
2020/12/09 09:46:02;;;;;;;45.93;32.17;;;;;;;7.85;58.43;100989.16;6077088;29;20742;-60
2020/12/09 09:49:23;;;;;;;49.67;32.80;;;;;;;7.76;58.43;100986.53;6074041;29;20241;-60
2020/12/09 09:52:44;;;;;;;50.10;34.87;;;;;;;7.68;58.81;100987.34;6074635;29;20228;-64
2020/12/09 09:56:05;;;;;;;47.53;32.53;;;;;;;7.87;58.13;100984.84;6074800;29;20316;-61
2020/12/09 09:59:29;;;;;;;45.53;31.97;;;;;;;7.93;58.02;100990.06;6081437;29;20241;-62
2020/12/09 10:02:49;;;;;;;47.23;32.17;;;;;;;7.97;58.04;100991.81;6075257;29;20309;-60
2020/12/09 10:06:10;;;;;;;51.33;33.17;;;;;;;7.58;58.92;100993.34;6074769;29;20324;-54
2020/12/09 10:09:30;;;;;;;45.37;32.37;;;;;;;7.55;59.39;100998.50;6072317;29;20336;-59
2020/12/09 10:12:50;;;;;;;50.40;33.77;;;;;;;7.55;59.36;100992.44;6070223;29;20233;-60
2020/12/09 10:16:12;;;;;;;42.83;30.30;;;;;;;7.86;58.62;100999.53;6072820;29;20229;-60
2020/12/09 10:19:34;;;;;;;48.20;33.10;;;;;;;7.77;58.70;101009.00;6069552;29;20526;-58
2020/12/09 10:22:54;;;;;;;48.83;33.30;;;;;;;7.82;58.47;101012.47;6062561;29;20628;-56
2020/12/09 10:26:14;;;;;;;51.90;34.30;;;;;;;7.71;58.95;101006.38;6081061;29;20743;-56
2020/12/09 10:29:35;;;;;;;49.27;32.77;;;;;;;7.74;58.79;101012.44;6076354;29;20608;-58
2020/12/09 10:32:56;;;;;;;50.80;34.23;;;;;;;7.72;58.67;101003.78;6076370;29;20685;-59
2020/12/09 10:36:22;;;;;;;56.60;35.97;;;;;;;7.71;58.93;101006.38;6066833;29;20237;-55
2020/12/09 10:39:42;;;;;;;54.73;35.70;;;;;;;7.89;58.36;100996.09;6073818;29;20233;-59
2020/12/09 10:43:03;;;;;;;50.83;34.80;;;;;;;7.66;58.85;101001.16;6073156;29;20229;-59
2020/12/09 10:46:31;;;;;;;53.43;35.93;;;;;;;7.47;59.56;100998.44;6061746;29;20237;-58
2020/12/09 10:49:52;;;;;;;53.43;36.43;;;;;;;7.64;59.57;100997.69;6081080;29;20248;-58
2020/12/09 10:53:13;;;;;;;55.80;35.90;;;;;;;7.88;58.71;100994.34;6071327;29;20256;-56
2020/12/09 10:56:34;;;;;;;52.47;35.47;;;;;;;8.06;58.40;100997.06;6069112;29;20230;-60
2020/12/09 10:59:54;;;;;;;55.37;35.83;;;;;;;8.09;57.96;100986.66;6089891;29;20249;-60
2020/12/09 11:03:14;;;;;;;49.30;35.13;;;;;;;8.12;58.15;100984.94;6080702;29;20236;-59
2020/12/09 11:06:37;;;;;;;54.53;35.83;;;;;;;7.92;58.50;100992.66;6067804;29;20249;-58
2020/12/09 11:09:57;;;;;;;51.07;36.50;;;;;;;8.01;58.39;100998.75;6082449;29;20233;-59
2020/12/09 11:13:18;;;;;;;54.60;35.57;;;;;;;7.75;58.67;101001.19;6061140;29;20233;-60
2020/12/09 11:16:39;;;;;;;56.03;38.67;;;;;;;7.63;59.38;100991.63;6061267;29;20232;-59
2020/12/09 11:19:59;;;;;;;53.57;36.83;;;;;;;7.60;59.48;100986.44;6081644;29;20237;-58
2020/12/09 11:23:21;;;;;;;54.67;37.87;;;;;;;7.95;58.64;100980.56;6081287;29;20252;-55
2020/12/09 11:26:41;;;;;;;55.97;35.57;;;;;;;7.91;58.61;100983.13;6061183;29;20314;-57
2020/12/09 11:30:02;;;;;;;58.70;39.03;;;;;;;7.98;58.49;100972.78;6081159;29;20225;-59
2020/12/09 11:33:23;;;;;;;55.27;37.00;;;;;;;7.84;58.93;100979.66;6083487;29;20277;-59
2020/12/09 11:36:43;;;;;;;55.90;35.80;;;;;;;7.98;58.48;100970.19;6066677;29;20248;-56
2020/12/09 11:40:05;;;;;;;54.10;36.77;;;;;;;8.01;58.35;100972.81;6086036;29;20237;-57
2020/12/09 11:43:27;;;;;;;52.00;36.77;;;;;;;8.18;58.09;100972.00;6079001;29;20229;-66
2020/12/09 11:46:48;;;;;;;54.13;38.17;;;;;;;8.15;58.12;100964.22;6066182;29;20233;-60
2020/12/09 11:50:09;;;;;;;54.70;36.17;;;;;;;8.17;57.76;100952.97;6082653;29;20229;-60
2020/12/09 11:53:29;;;;;;;54.13;37.13;;;;;;;8.21;57.50;100964.22;6080845;29;20236;-56
2020/12/09 11:56:50;;;;;;;51.80;35.37;;;;;;;7.92;58.62;100964.97;6072660;29;20326;-57
2020/12/09 12:00:11;;;;;;;48.83;32.77;;;;;;;8.14;58.18;100959.88;6084380;29;20254;-60
2020/12/09 12:03:32;;;;;;;55.53;37.23;;;;;;;8.14;58.05;100968.50;6086360;29;20235;-60
2020/12/09 12:06:52;;;;;;;52.90;36.97;;;;;;;7.98;58.29;100957.22;6072246;29;20606;-58
2020/12/09 12:10:13;;;;;;;51.57;36.13;;;;;;;8.04;58.26;100959.84;6080637;29;20233;-61
2020/12/09 12:13:34;;;;;;;51.73;35.73;;;;;;;8.09;57.87;100947.75;6080155;29;20229;-57
2020/12/09 12:16:54;;;;;;;54.77;37.53;;;;;;;7.72;58.71;100948.50;6065234;29;20615;-57
2020/12/09 12:20:15;;;;;;;58.33;37.43;;;;;;;7.80;58.79;100957.16;6072079;29;20272;-55
2020/12/09 12:23:35;;;;;;;53.10;37.27;;;;;;;7.93;58.51;100958.94;6076212;29;20739;-59
2020/12/09 12:26:56;;;;;;;51.37;37.30;;;;;;;8.12;57.82;100948.63;6066395;29;20225;-60
2020/12/09 12:30:17;;;;;;;54.83;37.10;;;;;;;8.21;57.78;100940.88;6078489;29;20268;-61
2020/12/09 12:33:38;;;;;;;53.90;39.13;;;;;;;7.84;58.77;100940.75;6077056;29;20619;-60
2020/12/09 12:36:59;;;;;;;61.40;38.30;;;;;;;7.87;58.56;100938.16;6070373;29;20671;-62
2020/12/09 12:40:19;;;;;;;57.07;39.27;;;;;;;7.75;58.96;100932.94;6084448;29;20238;-58
2020/12/09 12:43:40;;;;;;;56.83;38.93;;;;;;;7.88;58.63;100938.16;6080163;29;20232;-63
2020/12/09 12:47:01;;;;;;;55.07;37.57;;;;;;;7.79;58.97;100945.03;6070997;29;20221;-63
2020/12/09 12:50:22;;;;;;;50.77;35.83;;;;;;;7.55;59.74;100941.47;6085129;29;20241;-63
2020/12/09 12:53:43;;;;;;;56.33;38.40;;;;;;;7.88;58.90;100939.91;6078333;29;20603;-63
2020/12/09 12:57:04;;;;;;;58.27;40.77;;;;;;;7.92;58.83;100941.66;6072219;29;20583;-63
2020/12/09 13:00:24;;;;;;;58.47;39.53;;;;;;;7.73;59.00;100938.09;6083728;29;20316;-62
2020/12/09 13:03:45;;;;;;;57.70;38.33;;;;;;;7.75;59.10;100938.13;6069997;29;21001;-62
2020/12/09 13:07:07;;;;;;;52.67;37.93;;;;;;;8.03;58.50;100933.91;6069698;29;20587;-62
2020/12/09 13:10:28;;;;;;;51.23;37.23;;;;;;;7.67;59.20;100945.84;6074251;29;20328;-64
2020/12/09 13:13:48;;;;;;;59.33;39.43;;;;;;;7.79;59.19;100940.75;6077016;29;20229;-64
2020/12/09 13:17:09;;;;;;;55.17;39.20;;;;;;;7.69;59.55;100933.78;6065143;29;20557;-64
2020/12/09 13:20:30;;;;;;;53.73;37.20;;;;;;;7.86;58.83;100926.94;6067215;29;20241;-64
2020/12/09 13:23:50;;;;;;;58.73;38.33;;;;;;;7.90;58.91;100930.41;6076537;29;20500;-64
2020/12/09 13:27:11;;;;;;;57.13;37.57;;;;;;;7.78;59.20;100938.13;6064424;29;20268;-65
2020/12/09 13:30:31;;;;;;;58.10;39.03;;;;;;;7.95;58.73;100939.06;6076911;29;20639;-65
2020/12/09 13:33:52;;;;;;;58.20;37.97;;;;;;;7.78;58.97;100933.81;6075065;29;20228;-61
2020/12/09 13:37:13;;;;;;;56.17;37.53;;;;;;;7.97;58.74;100934.75;6057386;29;20240;-64
2020/12/09 13:40:33;;;;;;;58.30;39.30;;;;;;;7.90;58.72;100948.56;6076706;29;20248;-60
2020/12/09 13:43:54;;;;;;;48.30;37.53;;;;;;;7.71;58.96;100942.41;6079904;29;20229;-62
2020/12/09 13:47:15;;;;;;;46.00;34.87;;;;;;;7.73;59.10;100950.22;6064394;29;20607;-62
2020/12/09 13:50:35;;;;;;;45.87;34.83;;;;;;;7.72;59.26;100956.28;6077402;29;20572;-53
2020/12/09 13:53:56;;;;;;;52.93;36.77;;;;;;;7.79;59.01;100950.22;6077832;29;21051;-59
2020/12/09 13:57:17;;;;;;;48.00;35.70;;;;;;;7.71;59.33;100946.75;6065715;29;20236;-58
2020/12/09 14:00:38;;;;;;;54.67;39.03;;;;;;;7.88;59.00;100950.28;6068139;29;20256;-55
2020/12/09 14:03:58;;;;;;;46.47;35.03;;;;;;;7.98;58.76;100946.84;6077821;29;20323;-53
2020/12/09 14:07:18;;;;;;;48.87;36.13;;;;;;;7.90;58.58;100945.97;6070635;29;20245;-60
2020/12/09 14:10:40;;;;;;;53.10;38.07;;;;;;;7.91;58.47;100950.31;6077616;29;20241;-58
2020/12/09 14:14:02;;;;;;;53.00;38.27;;;;;;;7.56;59.47;100952.69;6079341;29;20225;-53
2020/12/09 14:17:22;;;;;;;47.67;35.13;;;;;;;7.47;59.91;100941.44;6077205;29;20233;-59
2020/12/09 14:20:43;;;;;;;51.47;39.50;;;;;;;7.59;59.55;100951.00;6073109;29;20233;-60
2020/12/09 14:24:04;;;;;;;51.00;36.20;;;;;;;7.65;59.64;100948.44;6080273;29;20588;-57
2020/12/09 14:27:26;;;;;;;53.10;37.37;;;;;;;7.42;60.12;100961.25;6078473;29;20236;-57
2020/12/09 14:30:46;;;;;;;49.97;36.00;;;;;;;7.57;59.85;100952.72;6080806;29;20604;-57
2020/12/09 14:34:07;;;;;;;49.63;38.50;;;;;;;7.65;59.48;100957.94;6090325;29;20245;-58
2020/12/09 14:37:27;;;;;;;51.00;36.27;;;;;;;7.52;59.94;100967.38;6079056;29;20697;-59
2020/12/09 14:40:48;;;;;;;58.33;41.60;;;;;;;7.15;60.99;100964.53;6086736;29;20232;-57
2020/12/09 14:44:10;;;;;;;53.77;37.90;;;;;;;7.11;61.21;100970.53;6086072;29;20248;-56
2020/12/09 14:47:30;;;;;;;57.07;39.83;;;;;;;7.14;61.18;100972.31;6076927;29;20229;-58
2020/12/09 14:50:51;;;;;;;52.67;40.03;;;;;;;7.25;61.03;100973.22;6075137;29;20240;-57
2020/12/09 14:54:13;;;;;;;56.53;38.93;;;;;;;7.16;61.39;100979.22;6078345;29;20238;-60
2020/12/09 14:57:34;;;;;;;60.30;44.17;;;;;;;7.25;60.96;100974.13;6071460;29;20221;-59
2020/12/09 15:00:55;;;;;;;62.00;46.00;;;;;;;7.29;61.07;100980.19;6077312;29;20800;-57
2020/12/09 15:04:15;;;;;;;59.90;38.43;;;;;;;7.60;60.02;100985.56;6065862;29;20237;-60
2020/12/09 15:07:36;;;;;;;60.30;40.33;;;;;;;7.21;61.19;100992.22;6069315;29;20240;-63
2020/12/09 15:10:57;;;;;;;58.77;41.77;;;;;;;7.25;61.23;100989.66;6075581;29;20229;-62
2020/12/09 15:14:17;;;;;;;69.07;43.00;;;;;;;7.47;60.79;100989.81;6066491;29;20228;-62
2020/12/09 15:17:38;;;;;;;65.20;41.13;;;;;;;7.48;60.76;100991.53;6084387;29;20229;-62
2020/12/09 15:20:59;;;;;;;60.57;39.50;;;;;;;7.56;60.60;100989.00;6066761;29;20316;-62
2020/12/09 15:24:19;;;;;;;70.27;42.07;;;;;;;7.20;62.09;100986.16;6075652;29;20241;-62
2020/12/09 15:27:40;;;;;;;60.30;41.77;;;;;;;7.55;61.01;100990.72;6068032;29;20228;-62